sensor_id;sensor_type;location;lat;lon;timestamp;pressure;altitude;pressure_sealevel;temperature;humidity
49377;BME280;35253;34.688;33.040;2024-03-22T00:01:45;100624.50;;;14.92;100.00
49377;BME280;35253;34.688;33.040;2024-03-22T00:04:12;100617.53;;;14.78;100.00
49377;BME280;35253;34.688;33.040;2024-03-22T00:06:38;100617.25;;;14.70;100.00
49377;BME280;35253;34.688;33.040;2024-03-22T00:09:04;100614.09;;;14.76;100.00
49377;BME280;35253;34.688;33.040;2024-03-22T00:11:30;100614.34;;;14.73;100.00
49377;BME280;35253;34.688;33.040;2024-03-22T00:13:56;100607.81;;;14.42;100.00
49377;BME280;35253;34.688;33.040;2024-03-22T00:16:22;100610.47;;;14.19;100.00
49377;BME280;35253;34.688;33.040;2024-03-22T00:18:47;100606.31;;;14.15;100.00
49377;BME280;35253;34.688;33.040;2024-03-22T00:21:13;100607.34;;;14.25;100.00
49377;BME280;35253;34.688;33.040;2024-03-22T00:23:39;100596.94;;;14.44;100.00
49377;BME280;35253;34.688;33.040;2024-03-22T00:26:04;100602.00;;;14.60;100.00
49377;BME280;35253;34.688;33.040;2024-03-22T00:28:30;100600.44;;;14.68;100.00
49377;BME280;35253;34.688;33.040;2024-03-22T00:30:55;100599.22;;;14.83;100.00
49377;BME280;35253;34.688;33.040;2024-03-22T00:33:21;100601.28;;;14.80;100.00
49377;BME280;35253;34.688;33.040;2024-03-22T00:35:47;100600.22;;;14.94;100.00
49377;BME280;35253;34.688;33.040;2024-03-22T00:38:12;100592.91;;;14.96;100.00
49377;BME280;35253;34.688;33.040;2024-03-22T00:40:38;100585.34;;;15.01;100.00
49377;BME280;35253;34.688;33.040;2024-03-22T00:43:04;100587.56;;;14.96;100.00
49377;BME280;35253;34.688;33.040;2024-03-22T00:45:29;100588.25;;;14.98;100.00
49377;BME280;35253;34.688;33.040;2024-03-22T00:47:55;100580.56;;;14.93;100.00
49377;BME280;35253;34.688;33.040;2024-03-22T00:50:20;100580.31;;;14.85;100.00
49377;BME280;35253;34.688;33.040;2024-03-22T00:52:46;100581.19;;;14.85;100.00
49377;BME280;35253;34.688;33.040;2024-03-22T00:55:12;100584.84;;;14.84;100.00
49377;BME280;35253;34.688;33.040;2024-03-22T00:57:37;100583.38;;;15.03;100.00
49377;BME280;35253;34.688;33.040;2024-03-22T01:00:03;100590.47;;;15.04;100.00
49377;BME280;35253;34.688;33.040;2024-03-22T01:02:29;100589.50;;;15.05;100.00
49377;BME280;35253;34.688;33.040;2024-03-22T01:04:55;100578.63;;;15.06;100.00
49377;BME280;35253;34.688;33.040;2024-03-22T01:07:21;100579.88;;;15.13;100.00
49377;BME280;35253;34.688;33.040;2024-03-22T01:09:46;100574.13;;;15.07;100.00
49377;BME280;35253;34.688;33.040;2024-03-22T01:12:12;100571.69;;;15.04;100.00
49377;BME280;35253;34.688;33.040;2024-03-22T01:14:37;100572.47;;;14.60;100.00
49377;BME280;35253;34.688;33.040;2024-03-22T01:17:03;100569.94;;;14.69;100.00
49377;BME280;35253;34.688;33.040;2024-03-22T01:19:29;100568.47;;;14.87;100.00
49377;BME280;35253;34.688;33.040;2024-03-22T01:21:54;100561.59;;;14.61;100.00
49377;BME280;35253;34.688;33.040;2024-03-22T01:24:20;100553.34;;;14.29;100.00
49377;BME280;35253;34.688;33.040;2024-03-22T01:26:46;100548.00;;;14.06;100.00
49377;BME280;35253;34.688;33.040;2024-03-22T01:29:13;100553.88;;;14.11;100.00
49377;BME280;35253;34.688;33.040;2024-03-22T01:31:39;100553.97;;;14.33;100.00
49377;BME280;35253;34.688;33.040;2024-03-22T01:34:04;100548.94;;;14.52;100.00
49377;BME280;35253;34.688;33.040;2024-03-22T01:36:30;100544.53;;;14.51;100.00
49377;BME280;35253;34.688;33.040;2024-03-22T01:38:57;100542.72;;;14.63;100.00
49377;BME280;35253;34.688;33.040;2024-03-22T01:41:22;100545.28;;;14.64;100.00
49377;BME280;35253;34.688;33.040;2024-03-22T01:43:48;100548.84;;;14.76;100.00
49377;BME280;35253;34.688;33.040;2024-03-22T01:46:14;100545.50;;;14.61;100.00
49377;BME280;35253;34.688;33.040;2024-03-22T01:48:40;100543.81;;;14.71;100.00
49377;BME280;35253;34.688;33.040;2024-03-22T01:51:06;100550.16;;;14.70;100.00
49377;BME280;35253;34.688;33.040;2024-03-22T01:53:32;100556.38;;;14.71;100.00
49377;BME280;35253;34.688;33.040;2024-03-22T01:55:59;100560.84;;;14.48;100.00
49377;BME280;35253;34.688;33.040;2024-03-22T01:58:25;100557.59;;;14.32;100.00
49377;BME280;35253;34.688;33.040;2024-03-22T02:00:50;100552.53;;;14.40;100.00
49377;BME280;35253;34.688;33.040;2024-03-22T02:03:16;100562.56;;;14.49;100.00
49377;BME280;35253;34.688;33.040;2024-03-22T02:05:41;100567.47;;;14.66;100.00
49377;BME280;35253;34.688;33.040;2024-03-22T02:08:07;100569.94;;;14.69;100.00
49377;BME280;35253;34.688;33.040;2024-03-22T02:10:33;100561.41;;;14.64;100.00
49377;BME280;35253;34.688;33.040;2024-03-22T02:12:58;100562.88;;;14.68;100.00
49377;BME280;35253;34.688;33.040;2024-03-22T02:15:24;100567.63;;;14.76;100.00
49377;BME280;35253;34.688;33.040;2024-03-22T02:17:49;100565.28;;;14.60;100.00
49377;BME280;35253;34.688;33.040;2024-03-22T02:20:15;100557.25;;;14.02;100.00
49377;BME280;35253;34.688;33.040;2024-03-22T02:22:41;100560.19;;;13.98;100.00
49377;BME280;35253;34.688;33.040;2024-03-22T02:25:07;100551.13;;;14.23;100.00
49377;BME280;35253;34.688;33.040;2024-03-22T02:27:34;100553.28;;;14.42;100.00
49377;BME280;35253;34.688;33.040;2024-03-22T02:29:59;100562.28;;;14.06;100.00
49377;BME280;35253;34.688;33.040;2024-03-22T02:32:25;100559.31;;;13.74;100.00
49377;BME280;35253;34.688;33.040;2024-03-22T02:34:51;100561.78;;;13.77;100.00
49377;BME280;35253;34.688;33.040;2024-03-22T02:37:16;100559.91;;;13.90;100.00
49377;BME280;35253;34.688;33.040;2024-03-22T02:39:42;100555.09;;;14.07;100.00
49377;BME280;35253;34.688;33.040;2024-03-22T02:42:08;100549.28;;;14.13;100.00
49377;BME280;35253;34.688;33.040;2024-03-22T02:44:34;100556.50;;;14.23;100.00
49377;BME280;35253;34.688;33.040;2024-03-22T02:46:59;100557.09;;;14.27;100.00
49377;BME280;35253;34.688;33.040;2024-03-22T02:49:25;100556.44;;;14.36;100.00
49377;BME280;35253;34.688;33.040;2024-03-22T02:51:51;100557.09;;;14.27;100.00
49377;BME280;35253;34.688;33.040;2024-03-22T02:54:16;100563.28;;;14.40;100.00
49377;BME280;35253;34.688;33.040;2024-03-22T02:56:42;100565.56;;;14.33;100.00
49377;BME280;35253;34.688;33.040;2024-03-22T02:59:08;100562.00;;;14.33;100.00
49377;BME280;35253;34.688;33.040;2024-03-22T03:01:33;100569.63;;;14.39;100.00
49377;BME280;35253;34.688;33.040;2024-03-22T03:03:59;100566.72;;;14.42;100.00
49377;BME280;35253;34.688;33.040;2024-03-22T03:06:24;100565.84;;;14.41;100.00
49377;BME280;35253;34.688;33.040;2024-03-22T03:08:50;100574.50;;;14.45;100.00
49377;BME280;35253;34.688;33.040;2024-03-22T03:11:16;100570.59;;;14.38;100.00
49377;BME280;35253;34.688;33.040;2024-03-22T03:13:41;100574.75;;;14.42;100.00
49377;BME280;35253;34.688;33.040;2024-03-22T03:16:07;100575.97;;;14.38;100.00
49377;BME280;35253;34.688;33.040;2024-03-22T03:18:32;100565.41;;;14.35;100.00
49377;BME280;35253;34.688;33.040;2024-03-22T03:20:58;100575.53;;;14.31;100.00
49377;BME280;35253;34.688;33.040;2024-03-22T03:23:24;100579.59;;;14.37;100.00
49377;BME280;35253;34.688;33.040;2024-03-22T03:25:49;100584.13;;;14.36;100.00
49377;BME280;35253;34.688;33.040;2024-03-22T03:28:15;100588.63;;;14.36;100.00
49377;BME280;35253;34.688;33.040;2024-03-22T03:30:41;100586.97;;;14.46;100.00
49377;BME280;35253;34.688;33.040;2024-03-22T03:33:07;100580.56;;;14.36;100.00
49377;BME280;35253;34.688;33.040;2024-03-22T03:35:32;100576.72;;;14.51;100.00
49377;BME280;35253;34.688;33.040;2024-03-22T03:37:59;100590.03;;;14.29;100.00
49377;BME280;35253;34.688;33.040;2024-03-22T03:40:24;100597.41;;;14.14;100.00
49377;BME280;35253;34.688;33.040;2024-03-22T03:42:50;100590.03;;;14.29;100.00
49377;BME280;35253;34.688;33.040;2024-03-22T03:45:16;100589.03;;;14.42;100.00
49377;BME280;35253;34.688;33.040;2024-03-22T03:47:42;100589.53;;;14.24;100.00
49377;BME280;35253;34.688;33.040;2024-03-22T03:50:08;100596.28;;;14.06;100.00
49377;BME280;35253;34.688;33.040;2024-03-22T03:52:34;100586.16;;;14.09;100.00
49377;BME280;35253;34.688;33.040;2024-03-22T03:54:59;100583.03;;;14.15;100.00
49377;BME280;35253;34.688;33.040;2024-03-22T03:57:25;100597.91;;;14.19;100.00
49377;BME280;35253;34.688;33.040;2024-03-22T03:59:51;100587.34;;;14.29;100.00
49377;BME280;35253;34.688;33.040;2024-03-22T04:02:17;100589.78;;;14.21;100.00
49377;BME280;35253;34.688;33.040;2024-03-22T04:04:42;100589.94;;;14.30;100.00
49377;BME280;35253;34.688;33.040;2024-03-22T04:07:08;100588.81;;;14.33;100.00
49377;BME280;35253;34.688;33.040;2024-03-22T04:09:34;100593.53;;;14.42;100.00
49377;BME280;35253;34.688;33.040;2024-03-22T04:12:00;100599.13;;;14.39;100.00
49377;BME280;35253;34.688;33.040;2024-03-22T04:14:26;100601.59;;;14.53;100.00
49377;BME280;35253;34.688;33.040;2024-03-22T04:16:51;100604.28;;;14.53;100.00
49377;BME280;35253;34.688;33.040;2024-03-22T04:19:20;100611.16;;;14.68;100.00
49377;BME280;35253;34.688;33.040;2024-03-22T04:21:46;100604.22;;;14.77;100.00
49377;BME280;35253;34.688;33.040;2024-03-22T04:24:12;100604.50;;;14.96;100.00
49377;BME280;35253;34.688;33.040;2024-03-22T04:26:38;100611.00;;;15.16;100.00
49377;BME280;35253;34.688;33.040;2024-03-22T04:29:03;100603.56;;;15.30;100.00
49377;BME280;35253;34.688;33.040;2024-03-22T04:31:29;100603.53;;;15.42;100.00
49377;BME280;35253;34.688;33.040;2024-03-22T04:33:54;100597.69;;;15.70;100.00
49377;BME280;35253;34.688;33.040;2024-03-22T04:36:21;100611.94;;;15.93;100.00
49377;BME280;35253;34.688;33.040;2024-03-22T04:38:48;100616.03;;;16.08;100.00
49377;BME280;35253;34.688;33.040;2024-03-22T04:41:13;100613.53;;;16.16;100.00
49377;BME280;35253;34.688;33.040;2024-03-22T04:43:39;100614.00;;;16.32;100.00
49377;BME280;35253;34.688;33.040;2024-03-22T04:46:05;100608.44;;;16.45;100.00
49377;BME280;35253;34.688;33.040;2024-03-22T04:48:30;100607.50;;;16.55;100.00
49377;BME280;35253;34.688;33.040;2024-03-22T04:50:56;100620.47;;;16.61;100.00
49377;BME280;35253;34.688;33.040;2024-03-22T04:53:22;100620.09;;;16.66;100.00
49377;BME280;35253;34.688;33.040;2024-03-22T04:55:49;100620.88;;;16.78;100.00
49377;BME280;35253;34.688;33.040;2024-03-22T04:58:17;100616.03;;;16.72;100.00
49377;BME280;35253;34.688;33.040;2024-03-22T05:00:44;100618.56;;;16.94;100.00
49377;BME280;35253;34.688;33.040;2024-03-22T05:03:10;100626.63;;;16.94;100.00
49377;BME280;35253;34.688;33.040;2024-03-22T05:05:36;100622.63;;;17.09;100.00
49377;BME280;35253;34.688;33.040;2024-03-22T05:08:02;100629.56;;;17.11;100.00
49377;BME280;35253;34.688;33.040;2024-03-22T05:10:29;100632.59;;;17.18;100.00
49377;BME280;35253;34.688;33.040;2024-03-22T05:12:55;100626.69;;;17.24;100.00
49377;BME280;35253;34.688;33.040;2024-03-22T05:15:21;100632.19;;;17.23;100.00
49377;BME280;35253;34.688;33.040;2024-03-22T05:17:48;100638.28;;;17.25;100.00
49377;BME280;35253;34.688;33.040;2024-03-22T05:20:14;100637.25;;;17.37;100.00
49377;BME280;35253;34.688;33.040;2024-03-22T05:22:40;100642.06;;;17.12;100.00
49377;BME280;35253;34.688;33.040;2024-03-22T05:25:06;100642.31;;;17.30;100.00
49377;BME280;35253;34.688;33.040;2024-03-22T05:27:33;100645.25;;;16.97;100.00
49377;BME280;35253;34.688;33.040;2024-03-22T05:29:59;100651.88;;;16.93;100.00
49377;BME280;35253;34.688;33.040;2024-03-22T05:32:25;100651.81;;;16.51;100.00
49377;BME280;35253;34.688;33.040;2024-03-22T05:34:52;100639.19;;;16.84;100.00
49377;BME280;35253;34.688;33.040;2024-03-22T05:37:17;100650.81;;;17.05;100.00
49377;BME280;35253;34.688;33.040;2024-03-22T05:39:43;100652.31;;;17.19;100.00
49377;BME280;35253;34.688;33.040;2024-03-22T05:42:08;100647.25;;;17.04;100.00
49377;BME280;35253;34.688;33.040;2024-03-22T05:44:34;100655.41;;;17.14;100.00
49377;BME280;35253;34.688;33.040;2024-03-22T05:47:00;100656.44;;;16.60;100.00
49377;BME280;35253;34.688;33.040;2024-03-22T05:49:26;100662.06;;;16.89;100.00
49377;BME280;35253;34.688;33.040;2024-03-22T05:51:52;100651.94;;;16.50;100.00
49377;BME280;35253;34.688;33.040;2024-03-22T05:54:17;100649.56;;;16.36;100.00
49377;BME280;35253;34.688;33.040;2024-03-22T05:56:43;100658.00;;;16.31;100.00
49377;BME280;35253;34.688;33.040;2024-03-22T05:59:08;100652.16;;;16.26;100.00
49377;BME280;35253;34.688;33.040;2024-03-22T06:01:35;100652.56;;;16.42;100.00
49377;BME280;35253;34.688;33.040;2024-03-22T06:04:01;100656.78;;;16.35;100.00
49377;BME280;35253;34.688;33.040;2024-03-22T06:06:27;100649.47;;;16.26;100.00
49377;BME280;35253;34.688;33.040;2024-03-22T06:08:52;100648.41;;;16.49;100.00
49377;BME280;35253;34.688;33.040;2024-03-22T06:11:20;100647.19;;;16.95;100.00
49377;BME280;35253;34.688;33.040;2024-03-22T06:13:47;100655.13;;;17.17;100.00
49377;BME280;35253;34.688;33.040;2024-03-22T06:16:13;100648.25;;;16.62;100.00
49377;BME280;35253;34.688;33.040;2024-03-22T06:18:39;100640.19;;;16.83;100.00
49377;BME280;35253;34.688;33.040;2024-03-22T06:21:05;100648.81;;;17.28;100.00
49377;BME280;35253;34.688;33.040;2024-03-22T06:23:31;100647.00;;;17.59;100.00
49377;BME280;35253;34.688;33.040;2024-03-22T06:25:57;100650.19;;;17.83;100.00
49377;BME280;35253;34.688;33.040;2024-03-22T06:28:23;100651.50;;;17.88;100.00
49377;BME280;35253;34.688;33.040;2024-03-22T06:30:49;100660.13;;;17.52;100.00
49377;BME280;35253;34.688;33.040;2024-03-22T06:33:15;100666.66;;;17.49;100.00
49377;BME280;35253;34.688;33.040;2024-03-22T06:35:43;100653.44;;;16.75;100.00
49377;BME280;35253;34.688;33.040;2024-03-22T06:38:09;100660.84;;;16.50;100.00
49377;BME280;35253;34.688;33.040;2024-03-22T06:40:35;100655.94;;;16.66;100.00
49377;BME280;35253;34.688;33.040;2024-03-22T06:43:01;100660.28;;;16.99;100.00
49377;BME280;35253;34.688;33.040;2024-03-22T06:45:27;100660.81;;;16.93;100.00
49377;BME280;35253;34.688;33.040;2024-03-22T06:47:53;100655.47;;;16.82;100.00
49377;BME280;35253;34.688;33.040;2024-03-22T06:50:18;100654.03;;;16.99;100.00
49377;BME280;35253;34.688;33.040;2024-03-22T06:52:50;100660.16;;;17.01;100.00
49377;BME280;35253;34.688;33.040;2024-03-22T06:55:15;100654.03;;;17.20;100.00
49377;BME280;35253;34.688;33.040;2024-03-22T06:57:41;100657.22;;;17.34;100.00
49377;BME280;35253;34.688;33.040;2024-03-22T07:00:07;100664.41;;;17.54;99.18
49377;BME280;35253;34.688;33.040;2024-03-22T07:02:35;100668.16;;;17.63;92.93
49377;BME280;35253;34.688;33.040;2024-03-22T07:05:01;100669.38;;;17.80;91.78
49377;BME280;35253;34.688;33.040;2024-03-22T07:07:26;100667.38;;;17.82;86.21
49377;BME280;35253;34.688;33.040;2024-03-22T07:09:52;100662.25;;;17.79;85.33
49377;BME280;35253;34.688;33.040;2024-03-22T07:12:17;100665.94;;;17.78;85.53
49377;BME280;35253;34.688;33.040;2024-03-22T07:14:43;100668.53;;;17.89;86.64
49377;BME280;35253;34.688;33.040;2024-03-22T07:17:09;100664.28;;;17.96;88.30
49377;BME280;35253;34.688;33.040;2024-03-22T07:19:34;100654.34;;;17.96;89.21
49377;BME280;35253;34.688;33.040;2024-03-22T07:22:00;100670.13;;;18.01;90.07
49377;BME280;35253;34.688;33.040;2024-03-22T07:24:26;100657.03;;;17.87;87.06
49377;BME280;35253;34.688;33.040;2024-03-22T07:26:52;100681.59;;;17.84;88.16
49377;BME280;35253;34.688;33.040;2024-03-22T07:29:17;100659.25;;;17.72;88.16
49377;BME280;35253;34.688;33.040;2024-03-22T07:31:43;100668.09;;;17.84;91.01
49377;BME280;35253;34.688;33.040;2024-03-22T07:34:09;100662.69;;;17.84;91.38
49377;BME280;35253;34.688;33.040;2024-03-22T07:36:38;100659.16;;;17.83;92.37
49377;BME280;35253;34.688;33.040;2024-03-22T07:39:04;100660.16;;;17.92;92.56
49377;BME280;35253;34.688;33.040;2024-03-22T07:41:34;100654.22;;;17.98;90.33
49377;BME280;35253;34.688;33.040;2024-03-22T07:44:00;100647.41;;;17.94;86.67
49377;BME280;35253;34.688;33.040;2024-03-22T07:46:26;100650.38;;;18.00;88.93
49377;BME280;35253;34.688;33.040;2024-03-22T07:48:52;100645.84;;;18.01;89.48
49377;BME280;35253;34.688;33.040;2024-03-22T07:51:19;100639.75;;;18.18;87.89
49377;BME280;35253;34.688;33.040;2024-03-22T07:53:45;100641.34;;;18.11;86.54
49377;BME280;35253;34.688;33.040;2024-03-22T07:56:10;100647.31;;;18.24;85.76
49377;BME280;35253;34.688;33.040;2024-03-22T07:58:36;100629.09;;;18.17;85.62
49377;BME280;35253;34.688;33.040;2024-03-22T08:01:02;100641.91;;;18.24;86.69
49377;BME280;35253;34.688;33.040;2024-03-22T08:03:28;100634.53;;;18.36;85.86
49377;BME280;35253;34.688;33.040;2024-03-22T08:06:07;100632.00;;;18.54;86.60
49377;BME280;35253;34.688;33.040;2024-03-22T08:08:33;100637.94;;;18.47;81.69
49377;BME280;35253;34.688;33.040;2024-03-22T08:10:58;100621.16;;;18.34;79.53
49377;BME280;35253;34.688;33.040;2024-03-22T08:13:24;100633.41;;;18.38;79.25
49377;BME280;35253;34.688;33.040;2024-03-22T08:15:49;100631.41;;;18.31;81.13
49377;BME280;35253;34.688;33.040;2024-03-22T08:18:15;100641.94;;;18.34;77.74
49377;BME280;35253;34.688;33.040;2024-03-22T08:20:41;100636.25;;;18.37;76.47
49377;BME280;35253;34.688;33.040;2024-03-22T08:23:07;100628.56;;;18.52;77.83
49377;BME280;35253;34.688;33.040;2024-03-22T08:25:33;100648.16;;;18.44;76.81
49377;BME280;35253;34.688;33.040;2024-03-22T08:27:59;100630.00;;;18.46;79.27
49377;BME280;35253;34.688;33.040;2024-03-22T08:30:25;100621.50;;;18.60;78.27
49377;BME280;35253;34.688;33.040;2024-03-22T08:32:51;100624.88;;;18.53;79.01
49377;BME280;35253;34.688;33.040;2024-03-22T08:35:17;100625.44;;;18.66;82.62
49377;BME280;35253;34.688;33.040;2024-03-22T08:37:42;100632.56;;;18.57;84.09
49377;BME280;35253;34.688;33.040;2024-03-22T08:40:08;100621.75;;;18.57;80.90
49377;BME280;35253;34.688;33.040;2024-03-22T08:42:36;100624.03;;;18.71;81.50
49377;BME280;35253;34.688;33.040;2024-03-22T08:45:01;100610.09;;;18.76;85.75
49377;BME280;35253;34.688;33.040;2024-03-22T08:47:28;100604.38;;;18.98;86.40
49377;BME280;35253;34.688;33.040;2024-03-22T08:49:54;100606.94;;;18.90;77.86
49377;BME280;35253;34.688;33.040;2024-03-22T08:52:21;100603.53;;;18.88;76.33
49377;BME280;35253;34.688;33.040;2024-03-22T08:54:50;100616.44;;;19.04;80.73
49377;BME280;35253;34.688;33.040;2024-03-22T08:57:16;100595.00;;;18.83;79.89
49377;BME280;35253;34.688;33.040;2024-03-22T08:59:41;100615.41;;;19.14;81.34
49377;BME280;35253;34.688;33.040;2024-03-22T09:02:07;100608.91;;;19.07;79.33
49377;BME280;35253;34.688;33.040;2024-03-22T09:04:32;100606.22;;;18.98;80.80
49377;BME280;35253;34.688;33.040;2024-03-22T09:06:58;100598.97;;;18.88;80.78
49377;BME280;35253;34.688;33.040;2024-03-22T09:09:24;100592.16;;;18.94;75.08
49377;BME280;35253;34.688;33.040;2024-03-22T09:11:49;100588.13;;;19.08;72.75
49377;BME280;35253;34.688;33.040;2024-03-22T09:14:15;100581.03;;;18.97;67.31
49377;BME280;35253;34.688;33.040;2024-03-22T09:16:42;100576.94;;;19.30;64.31
49377;BME280;35253;34.688;33.040;2024-03-22T09:19:08;100576.53;;;19.62;65.41
49377;BME280;35253;34.688;33.040;2024-03-22T09:21:33;100574.53;;;19.27;63.59
49377;BME280;35253;34.688;33.040;2024-03-22T09:23:59;100567.81;;;19.31;62.09
49377;BME280;35253;34.688;33.040;2024-03-22T09:26:25;100557.91;;;19.22;63.00
49377;BME280;35253;34.688;33.040;2024-03-22T09:28:51;100564.09;;;19.42;62.27
49377;BME280;35253;34.688;33.040;2024-03-22T09:31:17;100548.78;;;19.23;63.82
49377;BME280;35253;34.688;33.040;2024-03-22T09:33:43;100565.19;;;19.49;62.52
49377;BME280;35253;34.688;33.040;2024-03-22T09:36:08;100559.28;;;19.63;60.88
49377;BME280;35253;34.688;33.040;2024-03-22T09:38:34;100574.44;;;19.56;61.44
49377;BME280;35253;34.688;33.040;2024-03-22T09:41:00;100550.59;;;19.69;60.70
49377;BME280;35253;34.688;33.040;2024-03-22T09:43:27;100555.19;;;19.59;60.25
49377;BME280;35253;34.688;33.040;2024-03-22T09:45:55;100540.53;;;19.79;59.73
49377;BME280;35253;34.688;33.040;2024-03-22T09:48:22;100541.31;;;19.71;59.95
49377;BME280;35253;34.688;33.040;2024-03-22T09:50:49;100545.41;;;19.75;58.73
49377;BME280;35253;34.688;33.040;2024-03-22T09:53:19;100537.69;;;19.98;58.17
49377;BME280;35253;34.688;33.040;2024-03-22T09:55:49;100540.88;;;20.11;58.52
49377;BME280;35253;34.688;33.040;2024-03-22T09:58:15;100546.06;;;20.05;57.51
49377;BME280;35253;34.688;33.040;2024-03-22T10:00:42;100531.72;;;19.77;56.15
49377;BME280;35253;34.688;33.040;2024-03-22T10:03:09;100534.53;;;19.85;53.49
49377;BME280;35253;34.688;33.040;2024-03-22T10:05:36;100528.25;;;20.02;54.38
49377;BME280;35253;34.688;33.040;2024-03-22T10:08:05;100530.28;;;20.00;56.08
49377;BME280;35253;34.688;33.040;2024-03-22T10:10:33;100540.41;;;20.34;55.69
49377;BME280;35253;34.688;33.040;2024-03-22T10:13:03;100532.88;;;20.27;54.83
49377;BME280;35253;34.688;33.040;2024-03-22T10:15:32;100509.00;;;20.05;57.17
49377;BME280;35253;34.688;33.040;2024-03-22T10:17:57;100536.53;;;19.83;55.59
49377;BME280;35253;34.688;33.040;2024-03-22T10:20:24;100521.38;;;20.25;57.76
49377;BME280;35253;34.688;33.040;2024-03-22T10:22:57;100525.78;;;20.44;54.13
49377;BME280;35253;34.688;33.040;2024-03-22T10:25:24;100516.88;;;20.16;51.02
49377;BME280;35253;34.688;33.040;2024-03-22T10:27:50;100522.22;;;20.26;53.72
49377;BME280;35253;34.688;33.040;2024-03-22T10:30:16;100509.38;;;20.46;53.61
49377;BME280;35253;34.688;33.040;2024-03-22T10:32:43;100514.41;;;20.41;45.18
49377;BME280;35253;34.688;33.040;2024-03-22T10:35:14;100521.25;;;20.71;46.42
49377;BME280;35253;34.688;33.040;2024-03-22T10:37:40;100511.19;;;20.63;50.30
49377;BME280;35253;34.688;33.040;2024-03-22T10:40:07;100509.75;;;20.51;49.95
49377;BME280;35253;34.688;33.040;2024-03-22T10:42:40;100507.06;;;20.33;50.66
49377;BME280;35253;34.688;33.040;2024-03-22T10:45:08;100516.47;;;20.29;50.92
49377;BME280;35253;34.688;33.040;2024-03-22T10:47:36;100500.66;;;20.60;49.34
49377;BME280;35253;34.688;33.040;2024-03-22T10:50:08;100511.88;;;20.65;48.28
49377;BME280;35253;34.688;33.040;2024-03-22T10:52:59;100490.47;;;20.80;49.65
49377;BME280;35253;34.688;33.040;2024-03-22T10:55:35;100505.22;;;21.53;49.55
49377;BME280;35253;34.688;33.040;2024-03-22T10:58:02;100508.03;;;21.01;50.47
49377;BME280;35253;34.688;33.040;2024-03-22T11:00:29;100506.44;;;20.91;47.43
49377;BME280;35253;34.688;33.040;2024-03-22T11:02:55;100519.19;;;20.98;48.23
49377;BME280;35253;34.688;33.040;2024-03-22T11:05:21;100512.00;;;20.89;48.05
49377;BME280;35253;34.688;33.040;2024-03-22T11:07:47;100514.97;;;20.70;46.73
49377;BME280;35253;34.688;33.040;2024-03-22T11:10:14;100496.69;;;20.72;44.21
49377;BME280;35253;34.688;33.040;2024-03-22T11:12:40;100489.66;;;20.87;41.45
49377;BME280;35253;34.688;33.040;2024-03-22T11:15:07;100502.78;;;21.34;40.11
49377;BME280;35253;34.688;33.040;2024-03-22T11:17:34;100514.28;;;21.28;37.77
49377;BME280;35253;34.688;33.040;2024-03-22T11:20:00;100503.84;;;21.49;37.44
49377;BME280;35253;34.688;33.040;2024-03-22T11:22:26;100492.91;;;21.83;39.09
49377;BME280;35253;34.688;33.040;2024-03-22T11:24:54;100499.34;;;21.90;37.62
49377;BME280;35253;34.688;33.040;2024-03-22T11:27:20;100509.75;;;22.02;36.57
49377;BME280;35253;34.688;33.040;2024-03-22T11:29:46;100494.75;;;21.74;36.56
49377;BME280;35253;34.688;33.040;2024-03-22T11:32:12;100497.28;;;21.18;36.30
49377;BME280;35253;34.688;33.040;2024-03-22T11:34:38;100504.25;;;21.20;38.12
49377;BME280;35253;34.688;33.040;2024-03-22T11:37:05;100493.28;;;20.70;40.03
49377;BME280;35253;34.688;33.040;2024-03-22T11:39:37;100488.38;;;20.99;38.31
49377;BME280;35253;34.688;33.040;2024-03-22T11:42:05;100485.06;;;21.13;36.08
49377;BME280;35253;34.688;33.040;2024-03-22T11:44:32;100507.63;;;20.88;35.07
49377;BME280;35253;34.688;33.040;2024-03-22T11:46:59;100483.19;;;21.56;35.45
49377;BME280;35253;34.688;33.040;2024-03-22T11:49:25;100482.41;;;21.22;36.55
49377;BME280;35253;34.688;33.040;2024-03-22T11:51:52;100481.19;;;21.74;35.11
49377;BME280;35253;34.688;33.040;2024-03-22T11:54:21;100488.09;;;21.61;33.89
49377;BME280;35253;34.688;33.040;2024-03-22T11:56:46;100468.47;;;21.67;32.76
49377;BME280;35253;34.688;33.040;2024-03-22T11:59:12;100489.00;;;21.19;32.74
49377;BME280;35253;34.688;33.040;2024-03-22T12:01:38;100484.75;;;21.17;31.72
49377;BME280;35253;34.688;33.040;2024-03-22T12:04:04;100491.44;;;21.46;32.22
49377;BME280;35253;34.688;33.040;2024-03-22T12:06:34;100476.88;;;21.05;32.09
49377;BME280;35253;34.688;33.040;2024-03-22T12:09:00;100472.81;;;21.51;32.97
49377;BME280;35253;34.688;33.040;2024-03-22T12:11:25;100476.72;;;21.49;32.59
49377;BME280;35253;34.688;33.040;2024-03-22T12:13:51;100476.47;;;21.18;32.82
49377;BME280;35253;34.688;33.040;2024-03-22T12:16:16;100463.31;;;20.97;33.11
49377;BME280;35253;34.688;33.040;2024-03-22T12:18:42;100476.53;;;21.00;33.77
49377;BME280;35253;34.688;33.040;2024-03-22T12:21:08;100468.22;;;21.36;34.30
49377;BME280;35253;34.688;33.040;2024-03-22T12:23:34;100469.06;;;21.02;34.13
49377;BME280;35253;34.688;33.040;2024-03-22T12:25:59;100483.03;;;21.16;32.79
49377;BME280;35253;34.688;33.040;2024-03-22T12:28:25;100471.75;;;21.02;31.67
49377;BME280;35253;34.688;33.040;2024-03-22T12:30:50;100482.81;;;21.09;31.01